Time;durP1;ratioP1;P1;durP2;ratioP2;P2;SDS_P1;SDS_P2;PMS_P1;PMS_P2;Temp;Humidity;BMP_temperature;BMP_pressure;BME280_temperature;BME280_humidity;BME280_pressure;Samples;Min_cycle;Max_cycle;Signal;HPM_P1;HPM_P2
2021/05/30 00:02:18;;;;;;;2.47;2.08;;;14.20;70.90;;;;;;5068097;28;27513;-64
2021/05/30 00:05:04;;;;;;;3.13;2.50;;;14.20;71.20;;;;;;5086323;28;27910;-64
2021/05/30 00:07:48;;;;;;;2.83;1.70;;;14.10;70.90;;;;;;5086091;28;27423;-67
2021/05/30 00:10:33;;;;;;;3.78;2.00;;;14.10;70.70;;;;;;5086380;28;27462;-65
2021/05/30 00:13:18;;;;;;;2.25;1.90;;;14.10;71.10;;;;;;5083741;28;27443;-65
2021/05/30 00:16:03;;;;;;;4.35;2.42;;;14.00;70.70;;;;;;5084787;28;27443;-64
2021/05/30 00:18:48;;;;;;;4.85;2.30;;;14.00;71.10;;;;;;5085861;28;27462;-64
2021/05/30 00:21:32;;;;;;;2.90;2.05;;;13.90;71.00;;;;;;5081960;28;27436;-64
2021/05/30 00:24:17;;;;;;;3.22;2.50;;;13.90;71.00;;;;;;5086039;28;27433;-64
2021/05/30 00:27:01;;;;;;;4.85;2.17;;;13.90;70.90;;;;;;5082337;28;27479;-64
2021/05/30 00:29:46;;;;;;;2.92;2.22;;;13.90;71.10;;;;;;5084897;28;27449;-64
2021/05/30 00:32:30;;;;;;;5.20;2.25;;;13.80;70.90;;;;;;5085902;28;27371;-64
2021/05/30 00:35:15;;;;;;;5.43;2.42;;;13.80;70.70;;;;;;5099280;27;27351;-64
2021/05/30 00:37:59;;;;;;;7.22;2.03;;;13.70;71.00;;;;;;5085601;28;27311;-64
2021/05/30 00:40:43;;;;;;;7.45;2.70;;;13.70;71.20;;;;;;5085561;28;27437;-64
2021/05/30 00:43:28;;;;;;;2.92;2.20;;;13.70;71.50;;;;;;5085767;28;27356;-64
2021/05/30 00:46:13;;;;;;;3.75;2.28;;;13.60;71.10;;;;;;5084851;28;27589;-64
2021/05/30 00:48:57;;;;;;;3.58;2.80;;;13.60;71.20;;;;;;5084484;28;27351;-64
2021/05/30 00:51:42;;;;;;;7.25;3.35;;;13.60;71.00;;;;;;5085340;28;27340;-64
2021/05/30 00:54:26;;;;;;;5.38;3.50;;;13.50;71.60;;;;;;5066767;28;27351;-64
2021/05/30 00:57:11;;;;;;;6.47;3.28;;;13.50;71.20;;;;;;5085473;28;27478;-64
2021/05/30 00:59:55;;;;;;;4.90;2.65;;;13.40;71.40;;;;;;5085427;28;27464;-64
2021/05/30 01:02:40;;;;;;;7.00;3.22;;;13.40;70.90;;;;;;5085462;28;27530;-65
2021/05/30 01:05:24;;;;;;;6.95;2.00;;;13.40;71.30;;;;;;5081227;28;27042;-64
2021/05/30 01:08:10;;;;;;;4.18;2.40;;;13.30;71.30;;;;;;5085139;28;27458;-65
2021/05/30 01:10:56;;;;;;;2.67;1.73;;;13.30;71.40;;;;;;5084123;28;27460;-64
2021/05/30 01:13:41;;;;;;;9.27;2.35;;;13.20;71.40;;;;;;5084919;28;27465;-64
2021/05/30 01:16:26;;;;;;;3.03;2.10;;;13.20;71.60;;;;;;5085235;28;27533;-65
2021/05/30 01:19:11;;;;;;;2.53;2.00;;;13.10;71.30;;;;;;5085189;28;27418;-64
2021/05/30 01:21:57;;;;;;;4.00;1.90;;;13.10;71.20;;;;;;5081015;28;27842;-65
2021/05/30 01:24:41;;;;;;;3.83;2.17;;;13.10;71.80;;;;;;5098466;27;27498;-64
2021/05/30 01:27:26;;;;;;;3.42;2.00;;;13.10;71.70;;;;;;5083506;28;27522;-64
2021/05/30 01:30:11;;;;;;;2.83;2.10;;;13.00;71.70;;;;;;5084078;28;27489;-67
2021/05/30 01:32:55;;;;;;;3.25;1.98;;;13.00;71.20;;;;;;5084845;28;27849;-64
2021/05/30 01:35:39;;;;;;;2.55;1.70;;;13.00;71.20;;;;;;5084145;28;27483;-65
2021/05/30 01:38:24;;;;;;;3.72;2.10;;;12.90;71.60;;;;;;5084142;28;27466;-65
2021/05/30 01:41:08;;;;;;;4.35;2.10;;;12.90;71.70;;;;;;5084543;28;27412;-64
2021/05/30 01:43:52;;;;;;;3.95;2.47;;;12.80;71.60;;;;;;5066409;28;27466;-64
2021/05/30 01:46:37;;;;;;;3.85;2.25;;;12.80;71.50;;;;;;5084732;28;27454;-64
2021/05/30 01:49:21;;;;;;;5.25;2.90;;;12.80;72.00;;;;;;5084827;28;27623;-64
2021/05/30 01:52:06;;;;;;;4.20;2.70;;;12.80;71.90;;;;;;5084705;28;27321;-64
2021/05/30 01:54:51;;;;;;;4.45;2.83;;;12.80;71.80;;;;;;5084642;28;27977;-65
2021/05/30 01:57:47;;;;;;;10.77;3.45;;;12.70;72.00;;;;;;5080303;28;27396;-64
2021/05/30 02:00:31;;;;;;;7.22;3.03;;;12.70;71.50;;;;;;5083549;28;27424;-64
2021/05/30 02:03:17;;;;;;;3.38;2.67;;;12.60;71.80;;;;;;5097956;27;27390;-64
2021/05/30 02:06:01;;;;;;;9.52;3.20;;;12.60;71.80;;;;;;5083480;28;27349;-63
2021/05/30 02:08:46;;;;;;;5.93;2.83;;;12.60;71.90;;;;;;5097509;27;27655;-64
2021/05/30 02:11:31;;;;;;;8.00;2.63;;;12.50;72.30;;;;;;5083647;28;27397;-65
2021/05/30 02:14:16;;;;;;;5.53;2.90;;;12.50;72.10;;;;;;5083349;28;27438;-65
2021/05/30 02:17:01;;;;;;;4.70;2.88;;;12.50;72.10;;;;;;5097644;27;27840;-63
2021/05/30 02:19:45;;;;;;;6.50;2.90;;;12.50;71.90;;;;;;5097965;27;27320;-63
2021/05/30 02:22:31;;;;;;;4.78;2.83;;;12.40;71.80;;;;;;5083560;28;27415;-64
2021/05/30 02:25:16;;;;;;;6.25;2.75;;;12.40;71.80;;;;;;5084204;28;27336;-63
2021/05/30 02:28:00;;;;;;;4.90;2.90;;;12.40;72.20;;;;;;5083195;28;27328;-64
2021/05/30 02:30:45;;;;;;;7.18;2.75;;;12.40;72.10;;;;;;5084094;28;27387;-63
2021/05/30 02:33:29;;;;;;;6.55;2.53;;;12.40;71.90;;;;;;5083920;28;27308;-64
2021/05/30 02:36:13;;;;;;;4.85;2.80;;;12.40;72.20;;;;;;5082582;28;28024;-64
2021/05/30 02:38:58;;;;;;;7.38;2.80;;;12.30;72.20;;;;;;5083694;28;27387;-64
2021/05/30 02:41:42;;;;;;;3.58;2.53;;;12.30;72.20;;;;;;5079980;28;27397;-64
2021/05/30 02:44:27;;;;;;;5.28;3.10;;;12.30;72.30;;;;;;5068864;28;27355;-64
2021/05/30 02:47:11;;;;;;;4.50;2.78;;;12.20;72.40;;;;;;5083914;28;27401;-64
2021/05/30 02:49:56;;;;;;;4.95;2.20;;;12.20;72.30;;;;;;5083840;28;27445;-64
2021/05/30 02:52:40;;;;;;;5.38;2.88;;;12.20;72.30;;;;;;5083687;28;27496;-64
2021/05/30 02:55:25;;;;;;;3.33;2.45;;;12.10;72.30;;;;;;5082814;28;27527;-66
2021/05/30 02:58:10;;;;;;;6.15;2.75;;;12.10;71.90;;;;;;5083752;28;27434;-64
2021/05/30 03:00:54;;;;;;;6.18;2.50;;;12.10;72.30;;;;;;5083354;28;27483;-64
2021/05/30 03:03:39;;;;;;;7.82;2.47;;;12.10;72.30;;;;;;5083468;28;27481;-64
2021/05/30 03:06:26;;;;;;;3.40;2.35;;;12.00;72.40;;;;;;5083799;28;27424;-64
2021/05/30 03:09:11;;;;;;;5.30;2.38;;;12.00;72.60;;;;;;5082434;28;27494;-64
2021/05/30 03:11:56;;;;;;;4.30;2.38;;;12.00;72.40;;;;;;5083490;28;27857;-64
2021/05/30 03:14:41;;;;;;;6.50;2.25;;;12.00;72.70;;;;;;5083039;28;27489;-64
2021/05/30 03:17:25;;;;;;;2.88;2.17;;;12.00;72.30;;;;;;5083554;28;27497;-64
2021/05/30 03:20:10;;;;;;;3.88;2.13;;;12.00;72.30;;;;;;5082384;28;27430;-64
2021/05/30 03:22:55;;;;;;;2.95;2.13;;;11.90;72.50;;;;;;5083118;28;27489;-64
2021/05/30 03:25:39;;;;;;;3.13;2.13;;;11.90;72.10;;;;;;5083381;28;27411;-64
2021/05/30 03:28:24;;;;;;;6.70;2.17;;;11.90;72.60;;;;;;5083014;28;27497;-64
2021/05/30 03:31:08;;;;;;;8.88;2.67;;;11.90;72.30;;;;;;5083059;28;27414;-64
2021/05/30 03:33:53;;;;;;;4.35;2.20;;;11.80;72.60;;;;;;5082753;28;27433;-64
2021/05/30 03:36:38;;;;;;;3.00;2.33;;;11.80;72.70;;;;;;5083026;28;27443;-64
2021/05/30 03:39:24;;;;;;;3.65;2.35;;;11.80;72.40;;;;;;5082808;28;27443;-64
2021/05/30 03:42:32;;;;;;;3.47;2.30;;;11.80;72.70;;;;;;5083146;28;27434;-63
2021/05/30 03:45:16;;;;;;;3.03;2.38;;;11.80;72.90;;;;;;5079058;28;27443;-63
2021/05/30 03:48:01;;;;;;;3.55;2.40;;;11.70;73.00;;;;;;5084617;28;27459;-63
2021/05/30 03:50:49;;;;;;;3.28;2.50;;;11.70;73.20;;;;;;5085895;28;26861;-63
2021/05/30 03:53:34;;;;;;;3.03;1.95;;;11.70;73.10;;;;;;5085999;28;27610;-63
2021/05/30 03:56:18;;;;;;;5.60;1.90;;;11.70;73.10;;;;;;5086549;28;27856;-63
2021/05/30 03:59:03;;;;;;;2.60;2.05;;;11.70;73.20;;;;;;5085689;28;27591;-63
2021/05/30 04:01:47;;;;;;;3.35;2.40;;;11.70;73.30;;;;;;5086123;28;27415;-63
2021/05/30 04:04:32;;;;;;;2.90;2.20;;;11.60;73.30;;;;;;5086396;28;27405;-63
2021/05/30 04:07:17;;;;;;;4.20;2.63;;;11.60;73.20;;;;;;5085574;28;27880;-63
2021/05/30 04:10:06;;;;;;;4.32;2.42;;;11.60;73.40;;;;;;5086236;28;27522;-64
2021/05/30 04:12:51;;;;;;;2.67;2.10;;;11.60;73.40;;;;;;5086254;28;27400;-63
2021/05/30 04:15:35;;;;;;;3.35;2.00;;;11.60;73.60;;;;;;5082296;28;27428;-63
2021/05/30 04:18:23;;;;;;;5.68;2.35;;;11.60;73.50;;;;;;5082125;28;27280;-64
2021/05/30 04:21:07;;;;;;;3.45;2.20;;;11.60;73.40;;;;;;5085419;28;27550;-64
2021/05/30 04:23:52;;;;;;;5.13;2.17;;;11.50;73.60;;;;;;5086141;28;26877;-64
2021/05/30 04:26:36;;;;;;;3.67;2.20;;;11.50;73.50;;;;;;5085330;28;27364;-64
2021/05/30 04:29:21;;;;;;;3.22;2.10;;;11.50;73.70;;;;;;5085780;28;27336;-64
2021/05/30 04:32:06;;;;;;;9.95;2.38;;;11.50;74.00;;;;;;5085908;28;27433;-65
2021/05/30 04:34:50;;;;;;;3.60;1.75;;;11.50;73.80;;;;;;5085654;28;27330;-64
2021/05/30 04:37:35;;;;;;;2.50;1.85;;;11.50;74.10;;;;;;5081878;28;27355;-64
2021/05/30 04:40:23;;;;;;;6.68;2.05;;;11.50;74.30;;;;;;5085779;28;27379;-64
2021/05/30 04:43:08;;;;;;;4.75;2.10;;;11.50;74.40;;;;;;5085699;28;27511;-63
2021/05/30 04:45:52;;;;;;;4.03;2.42;;;11.50;74.00;;;;;;5085752;28;27429;-66
2021/05/30 04:48:36;;;;;;;3.42;2.55;;;11.50;74.70;;;;;;5084222;28;27535;-64
2021/05/30 04:51:21;;;;;;;5.70;2.15;;;11.50;74.50;;;;;;5084815;28;27328;-64
2021/05/30 04:54:05;;;;;;;7.57;2.03;;;11.50;74.50;;;;;;5084341;28;27509;-64
2021/05/30 04:56:50;;;;;;;9.45;2.75;;;11.50;74.70;;;;;;5085366;28;27381;-63
2021/05/30 04:59:34;;;;;;;3.05;2.63;;;11.60;74.80;;;;;;5083981;28;27329;-64
2021/05/30 05:02:19;;;;;;;3.22;2.50;;;11.60;75.30;;;;;;5085225;28;27340;-63
2021/05/30 05:05:04;;;;;;;4.55;2.63;;;11.60;74.90;;;;;;5084379;28;27383;-64
2021/05/30 05:07:49;;;;;;;2.92;2.45;;;11.60;75.20;;;;;;5085469;28;27348;-64
2021/05/30 05:10:33;;;;;;;3.88;2.20;;;11.60;75.10;;;;;;5085328;28;27371;-64
2021/05/30 05:13:18;;;;;;;3.22;2.72;;;11.60;75.20;;;;;;5085188;28;27386;-64
2021/05/30 05:16:03;;;;;;;3.20;2.70;;;11.60;75.10;;;;;;5069286;28;27446;-64
2021/05/30 05:18:47;;;;;;;3.90;2.70;;;11.70;75.10;;;;;;5085049;28;27390;-63
2021/05/30 05:21:32;;;;;;;7.88;3.25;;;11.70;75.60;;;;;;5085217;28;27364;-63
2021/05/30 05:24:16;;;;;;;4.63;3.28;;;11.70;75.40;;;;;;5085081;28;27458;-64
2021/05/30 05:27:01;;;;;;;3.60;2.88;;;11.70;75.50;;;;;;5084494;28;27423;-64
2021/05/30 05:29:45;;;;;;;6.78;3.17;;;11.80;75.90;;;;;;5084299;28;27445;-63
2021/05/30 05:32:30;;;;;;;4.40;3.30;;;11.80;75.80;;;;;;5084671;28;27473;-64
2021/05/30 05:35:14;;;;;;;3.28;2.95;;;11.80;76.10;;;;;;5084886;28;27431;-63
2021/05/30 05:37:59;;;;;;;3.53;2.90;;;11.90;76.20;;;;;;5084510;28;27494;-63
2021/05/30 05:40:44;;;;;;;4.63;3.20;;;11.90;76.50;;;;;;5084487;28;27458;-63
2021/05/30 05:43:28;;;;;;;5.60;3.10;;;11.90;76.50;;;;;;5084845;28;27470;-63
2021/05/30 05:46:13;;;;;;;5.82;3.97;;;12.00;76.70;;;;;;5084747;28;27466;-63
2021/05/30 05:48:57;;;;;;;5.75;3.40;;;12.10;76.80;;;;;;5084737;28;27458;-64
2021/05/30 05:51:41;;;;;;;4.40;3.35;;;12.20;77.10;;;;;;5084565;28;27365;-63
2021/05/30 05:54:26;;;;;;;3.85;3.55;;;12.30;76.70;;;;;;5084385;28;27325;-64
2021/05/30 05:57:10;;;;;;;6.20;3.35;;;12.50;76.90;;;;;;5084567;28;27397;-64
2021/05/30 05:59:55;;;;;;;7.10;3.50;;;12.70;76.30;;;;;;5084195;28;27329;-64
2021/05/30 06:02:39;;;;;;;3.85;3.50;;;12.90;76.40;;;;;;5084554;28;27392;-64
2021/05/30 06:05:24;;;;;;;3.40;3.10;;;13.10;75.10;;;;;;5084255;28;27329;-64
2021/05/30 06:08:09;;;;;;;3.80;3.40;;;13.30;75.40;;;;;;5083110;28;27351;-64
2021/05/30 06:10:53;;;;;;;5.75;4.93;;;13.60;76.20;;;;;;5084488;28;27427;-64
2021/05/30 06:13:38;;;;;;;5.20;3.63;;;13.80;77.00;;;;;;5084261;28;27418;-64
2021/05/30 06:16:23;;;;;;;5.53;3.28;;;14.00;75.40;;;;;;5080016;28;27427;-64
2021/05/30 06:19:07;;;;;;;3.40;3.10;;;14.20;75.80;;;;;;5065719;28;28024;-65
2021/05/30 06:21:51;;;;;;;4.60;3.40;;;14.40;74.90;;;;;;5084171;28;27470;-67
2021/05/30 06:24:36;;;;;;;3.38;3.08;;;14.50;74.60;;;;;;5083947;28;27485;-64
2021/05/30 06:27:20;;;;;;;4.00;3.45;;;14.70;75.40;;;;;;5082705;28;27454;-67
2021/05/30 06:30:07;;;;;;;5.28;3.60;;;14.90;75.00;;;;;;5083850;28;27871;-64
2021/05/30 06:32:52;;;;;;;5.05;3.20;;;15.10;75.30;;;;;;5083795;28;27468;-64
2021/05/30 06:35:39;;;;;;;4.10;3.38;;;15.20;76.20;;;;;;5083121;28;27492;-64
2021/05/30 06:38:23;;;;;;;6.40;3.53;;;15.40;77.20;;;;;;5084041;28;27390;-65
2021/05/30 06:41:08;;;;;;;2.97;2.70;;;15.60;77.10;;;;;;5082808;28;27395;-64
2021/05/30 06:43:53;;;;;;;3.85;3.15;;;15.80;76.80;;;;;;5083729;28;27359;-64
2021/05/30 06:46:38;;;;;;;5.65;3.20;;;16.00;77.30;;;;;;5079911;28;27375;-68
2021/05/30 06:49:22;;;;;;;4.07;2.78;;;16.10;76.90;;;;;;5083788;28;27320;-64
2021/05/30 06:52:06;;;;;;;3.78;2.80;;;16.30;75.10;;;;;;5083753;28;27518;-65
2021/05/30 06:54:51;;;;;;;3.53;2.78;;;16.40;75.40;;;;;;5083393;28;27474;-65
2021/05/30 06:57:35;;;;;;;2.33;2.10;;;16.60;74.30;;;;;;5083802;28;27465;-65
2021/05/30 07:00:20;;;;;;;2.58;2.35;;;16.70;74.20;;;;;;5083238;28;27324;-65
2021/05/30 07:03:04;;;;;;;6.82;2.25;;;16.90;75.20;;;;;;5083430;28;27508;-65
2021/05/30 07:05:50;;;;;;;2.10;1.90;;;17.10;75.30;;;;;;5082540;28;27480;-65
2021/05/30 07:08:34;;;;;;;2.80;2.50;;;17.40;73.90;;;;;;5083548;28;27414;-65
2021/05/30 07:11:19;;;;;;;2.20;2.00;;;17.50;75.00;;;;;;5083434;28;27463;-65
2021/05/30 07:14:03;;;;;;;2.50;2.30;;;17.80;74.80;;;;;;5082153;28;27443;-65
2021/05/30 07:16:48;;;;;;;3.55;1.92;;;18.00;69.70;;;;;;5083218;28;27494;-65
2021/05/30 07:19:32;;;;;;;2.35;2.15;;;18.10;68.90;;;;;;5083175;28;27446;-65
2021/05/30 07:22:16;;;;;;;4.45;2.40;;;18.30;70.00;;;;;;5084211;28;27387;-65
2021/05/30 07:25:01;;;;;;;6.63;3.53;;;18.50;69.30;;;;;;5086990;28;27308;-65
2021/05/30 07:27:45;;;;;;;2.85;2.40;;;18.70;68.20;;;;;;5085994;28;27363;-68
2021/05/30 07:30:30;;;;;;;2.20;1.85;;;18.80;66.90;;;;;;5082468;28;27351;-68
2021/05/30 07:33:15;;;;;;;2.03;1.70;;;19.00;66.40;;;;;;5082620;28;27356;-65
2021/05/30 07:35:59;;;;;;;2.00;1.80;;;19.20;64.50;;;;;;5086681;28;27383;-65
2021/05/30 07:38:44;;;;;;;3.50;2.20;;;19.30;62.60;;;;;;5086930;28;27324;-64
2021/05/30 07:41:28;;;;;;;1.67;1.58;;;19.50;64.50;;;;;;5082842;28;27320;-63
2021/05/30 07:44:13;;;;;;;2.47;1.80;;;19.70;62.50;;;;;;5086152;28;27411;-64
2021/05/30 07:46:58;;;;;;;1.63;1.42;;;19.80;61.90;;;;;;5087020;28;27860;-64
2021/05/30 07:49:43;;;;;;;3.63;1.80;;;20.10;60.60;;;;;;5087300;28;27395;-64
2021/05/30 07:52:27;;;;;;;2.22;1.95;;;20.20;60.00;;;;;;5085829;28;27344;-66
2021/05/30 07:55:12;;;;;;;2.22;1.70;;;20.40;55.90;;;;;;5086850;28;27473;-66
2021/05/30 07:57:56;;;;;;;1.95;1.50;;;20.60;52.00;;;;;;5087157;28;27411;-64
2021/05/30 08:00:41;;;;;;;8.45;1.95;;;20.80;50.50;;;;;;5087124;28;27634;-66
2021/05/30 08:03:25;;;;;;;3.47;1.80;;;21.00;50.10;;;;;;5087303;28;27399;-65
2021/05/30 08:06:09;;;;;;;2.17;1.50;;;21.10;45.80;;;;;;5083199;28;27406;-70
2021/05/30 08:08:54;;;;;;;5.00;2.00;;;21.20;44.40;;;;;;5087052;28;27441;-66
2021/05/30 08:11:38;;;;;;;3.30;1.67;;;21.40;45.90;;;;;;5086931;28;27462;-66
2021/05/30 08:14:23;;;;;;;2.10;1.90;;;21.60;48.50;;;;;;5082725;28;27457;-66
2021/05/30 08:17:08;;;;;;;3.20;1.50;;;21.90;50.10;;;;;;5087315;28;27478;-66
2021/05/30 08:19:52;;;;;;;3.40;1.60;;;22.10;50.00;;;;;;5086654;28;27484;-67
2021/05/30 08:22:37;;;;;;;2.10;1.50;;;22.40;49.00;;;;;;5090640;28;27493;-65
2021/05/30 08:25:21;;;;;;;5.22;1.65;;;22.60;47.90;;;;;;5091920;28;27376;-65
2021/05/30 08:28:09;;;;;;;4.20;1.50;;;22.80;49.10;;;;;;5086202;28;27352;-68
2021/05/30 08:30:54;;;;;;;2.33;1.67;;;22.90;47.20;;;;;;5086296;28;27446;-64
2021/05/30 08:33:38;;;;;;;3.15;1.73;;;23.00;44.30;;;;;;5085389;28;27427;-64
2021/05/30 08:36:23;;;;;;;2.33;1.50;;;22.90;44.20;;;;;;5086243;28;27001;-64
2021/05/30 08:39:08;;;;;;;2.38;1.48;;;22.90;45.30;;;;;;5086464;28;27395;-64
2021/05/30 08:41:52;;;;;;;7.88;3.05;;;22.80;42.20;;;;;;5086041;28;27458;-64
2021/05/30 08:44:37;;;;;;;3.88;1.67;;;22.90;42.60;;;;;;5086399;28;27378;-64
2021/05/30 08:47:21;;;;;;;3.15;1.50;;;23.00;41.70;;;;;;5086013;28;27371;-64
2021/05/30 08:50:09;;;;;;;3.63;1.33;;;23.10;40.90;;;;;;5086105;28;27422;-64
2021/05/30 08:52:54;;;;;;;3.30;1.70;;;23.20;39.60;;;;;;5086090;28;27434;-64
2021/05/30 08:55:38;;;;;;;1.90;1.42;;;23.40;40.30;;;;;;5082180;28;27457;-64
2021/05/30 08:58:32;;;;;;;2.35;1.80;;;23.50;39.80;;;;;;5086248;28;27467;-64
2021/05/30 09:01:17;;;;;;;5.32;1.77;;;23.70;39.10;;;;;;5086216;28;27383;-66
2021/05/30 09:04:07;;;;;;;5.05;2.00;;;23.80;39.30;;;;;;5086097;28;27361;-65
2021/05/30 09:06:53;;;;;;;2.83;1.88;;;23.90;39.40;;;;;;5086115;28;27419;-65
2021/05/30 09:09:48;;;;;;;4.97;1.60;;;24.00;38.90;;;;;;5071440;28;27387;-64
2021/05/30 09:12:37;;;;;;;2.65;1.75;;;24.10;37.90;;;;;;5084563;28;27489;-64
2021/05/30 09:15:27;;;;;;;2.83;1.45;;;24.00;37.30;;;;;;5084635;28;27848;-64
2021/05/30 09:18:19;;;;;;;1.50;1.40;;;24.00;37.80;;;;;;5086065;28;27458;-68
2021/05/30 09:21:12;;;;;;;3.17;1.55;;;24.10;37.10;;;;;;5085811;28;27430;-64
2021/05/30 09:23:57;;;;;;;2.00;1.88;;;24.20;35.60;;;;;;5085785;28;27392;-65
2021/05/30 09:26:41;;;;;;;2.72;1.48;;;24.40;37.70;;;;;;5085298;28;27877;-64
2021/05/30 09:29:26;;;;;;;2.35;1.52;;;24.50;37.50;;;;;;5085621;28;27371;-64
2021/05/30 09:32:10;;;;;;;3.70;1.50;;;24.70;36.50;;;;;;5084936;28;27402;-68
2021/05/30 09:34:55;;;;;;;2.30;1.60;;;24.80;35.40;;;;;;5085446;28;27309;-68
2021/05/30 09:37:40;;;;;;;6.47;1.77;;;24.90;36.20;;;;;;5084496;28;27415;-65
2021/05/30 09:40:40;;;;;;;13.52;1.90;;;24.80;36.50;;;;;;5099192;27;27375;-65
2021/05/30 09:43:31;;;;;;;5.05;1.80;;;24.80;34.90;;;;;;5082164;28;27388;-65
2021/05/30 09:46:17;;;;;;;4.82;1.67;;;24.70;35.70;;;;;;5081056;28;27391;-65
2021/05/30 09:49:02;;;;;;;2.42;1.67;;;24.80;36.20;;;;;;5085190;28;27403;-65
2021/05/30 09:51:47;;;;;;;2.10;1.35;;;24.80;34.30;;;;;;5085194;28;27708;-66
2021/05/30 09:54:31;;;;;;;5.03;1.60;;;25.00;34.80;;;;;;5085119;28;27442;-66
2021/05/30 09:57:16;;;;;;;2.35;1.58;;;25.10;36.00;;;;;;5084281;28;27398;-65
2021/05/30 10:00:00;;;;;;;4.82;1.70;;;25.20;35.50;;;;;;5084194;28;27344;-64
2021/05/30 10:02:45;;;;;;;2.85;1.58;;;25.30;35.30;;;;;;5085139;28;27336;-64
2021/05/30 10:05:29;;;;;;;6.03;1.73;;;25.50;35.90;;;;;;5084451;28;27381;-64
2021/05/30 10:08:18;;;;;;;5.60;2.00;;;25.60;35.10;;;;;;5084718;28;27393;-64
2021/05/30 10:11:02;;;;;;;2.65;1.88;;;25.60;33.40;;;;;;5084946;28;27513;-65
2021/05/30 10:13:47;;;;;;;2.40;1.85;;;25.70;35.00;;;;;;5084823;28;27391;-65
2021/05/30 10:16:32;;;;;;;3.13;1.98;;;25.70;34.10;;;;;;5084646;28;27362;-65
2021/05/30 10:19:19;;;;;;;2.38;1.63;;;25.80;35.10;;;;;;5080632;28;27340;-65
2021/05/30 10:22:04;;;;;;;2.55;1.80;;;25.80;33.30;;;;;;5084482;28;27881;-69
2021/05/30 10:24:49;;;;;;;3.40;1.85;;;25.70;33.30;;;;;;5083665;28;27509;-66
2021/05/30 10:27:33;;;;;;;4.50;2.00;;;25.60;31.90;;;;;;5081739;28;27405;-65
2021/05/30 10:30:18;;;;;;;7.65;2.17;;;25.40;36.40;;;;;;5084797;28;27411;-65
2021/05/30 10:33:25;;;;;;;5.93;2.13;;;25.30;40.60;;;;;;5084607;28;27876;-65
2021/05/30 10:36:12;;;;;;;6.57;2.40;;;25.40;41.70;;;;;;5084301;28;27392;-64
2021/05/30 10:38:57;;;;;;;1.98;1.83;;;25.50;36.20;;;;;;5080458;28;27400;-64
2021/05/30 10:42:04;;;;;;;3.45;2.20;;;25.50;38.00;;;;;;5083831;28;27427;-65
2021/05/30 10:45:04;;;;;;;1.92;1.83;;;25.50;39.40;;;;;;5083950;28;27391;-64
2021/05/30 10:48:09;;;;;;;2.60;1.75;;;25.60;35.50;;;;;;5084466;28;27408;-64
2021/05/30 10:53:53;;;;;;;4.50;2.15;;;25.50;33.90;;;;;;5084176;28;27564;-64
2021/05/30 10:56:40;;;;;;;4.35;2.30;;;25.40;33.60;;;;;;5083141;28;27364;-66
2021/05/30 10:59:26;;;;;;;4.75;1.77;;;25.40;36.80;;;;;;5084337;28;27511;-70
2021/05/30 11:02:13;;;;;;;5.53;2.10;;;25.40;36.40;;;;;;5084420;28;27344;-67
2021/05/30 11:04:58;;;;;;;5.05;1.85;;;25.30;36.20;;;;;;5083574;28;27507;-66
2021/05/30 11:07:42;;;;;;;3.67;2.58;;;25.30;36.50;;;;;;5084277;28;27873;-65
2021/05/30 11:10:26;;;;;;;2.03;1.83;;;25.20;35.30;;;;;;5097656;27;27429;-66
2021/05/30 11:13:17;;;;;;;2.05;1.85;;;25.00;38.90;;;;;;5084022;28;27356;-66
2021/05/30 11:16:08;;;;;;;2.13;1.90;;;24.80;39.70;;;;;;5083889;28;27469;-66
2021/05/30 11:19:00;;;;;;;1.98;1.77;;;24.70;40.10;;;;;;5083719;28;27459;-66
2021/05/30 11:21:48;;;;;;;1.75;1.63;;;24.70;43.00;;;;;;5083795;28;27383;-66
2021/05/30 11:24:33;;;;;;;4.88;1.85;;;24.80;44.50;;;;;;5083709;28;27495;-66
2021/05/30 11:27:17;;;;;;;3.38;1.80;;;24.90;46.90;;;;;;5082487;28;27745;-67
2021/05/30 11:30:02;;;;;;;3.70;2.15;;;24.90;47.00;;;;;;5083610;28;27388;-67
2021/05/30 11:32:48;;;;;;;3.55;2.08;;;25.00;49.10;;;;;;5083244;28;27411;-67
2021/05/30 11:35:33;;;;;;;2.25;2.03;;;25.10;47.30;;;;;;5083584;28;27502;-67
2021/05/30 11:38:18;;;;;;;2.17;2.03;;;25.10;48.00;;;;;;5083787;28;27458;-67
2021/05/30 11:41:10;;;;;;;2.47;2.22;;;25.10;51.50;;;;;;5083811;28;27516;-66
2021/05/30 11:44:02;;;;;;;3.65;1.92;;;25.20;51.40;;;;;;5083533;28;27497;-67
2021/05/30 11:46:54;;;;;;;4.05;2.38;;;25.30;54.00;;;;;;5083631;28;27399;-66
2021/05/30 11:49:39;;;;;;;2.15;1.92;;;25.40;52.70;;;;;;5084129;28;27407;-67
2021/05/30 11:52:24;;;;;;;2.20;2.00;;;25.50;53.70;;;;;;5083595;28;27477;-67
2021/05/30 11:55:15;;;;;;;3.03;2.10;;;25.40;55.90;;;;;;5083323;28;27418;-67
2021/05/30 11:58:06;;;;;;;2.45;1.95;;;25.40;55.00;;;;;;5083458;28;27311;-68
2021/05/30 12:01:01;;;;;;;2.90;1.98;;;25.40;52.30;;;;;;5083315;28;27454;-68
2021/05/30 12:03:48;;;;;;;3.78;1.92;;;25.50;56.70;;;;;;5083382;28;27474;-67
2021/05/30 12:06:43;;;;;;;2.05;1.90;;;25.40;52.90;;;;;;5083523;28;27340;-67
2021/05/30 12:09:50;;;;;;;3.55;2.15;;;25.20;50.60;;;;;;5085828;28;27411;-67
2021/05/30 12:12:47;;;;;;;3.75;1.88;;;25.10;50.80;;;;;;5087074;28;27402;-67
2021/05/30 12:15:32;;;;;;;2.08;1.80;;;25.10;50.90;;;;;;5086788;28;27884;-67
2021/05/30 12:18:17;;;;;;;3.15;1.83;;;25.20;54.70;;;;;;5086801;28;27388;-68
2021/05/30 12:21:02;;;;;;;2.08;1.90;;;25.20;55.60;;;;;;5082636;28;27390;-67
2021/05/30 12:23:47;;;;;;;5.38;2.53;;;25.20;53.50;;;;;;5086467;28;27375;-67
2021/05/30 12:26:32;;;;;;;2.42;2.10;;;25.10;54.50;;;;;;5082739;28;27845;-68
2021/05/30 12:29:17;;;;;;;2.47;2.20;;;25.20;57.80;;;;;;5086371;28;27391;-67
2021/05/30 12:32:01;;;;;;;4.82;2.40;;;25.30;56.30;;;;;;5086676;28;27336;-68
2021/05/30 12:34:46;;;;;;;3.88;2.65;;;25.20;54.40;;;;;;5085239;28;27405;-67
2021/05/30 12:37:41;;;;;;;6.30;2.47;;;25.00;50.00;;;;;;5086187;28;27449;-68
2021/05/30 12:40:35;;;;;;;3.25;2.03;;;24.90;53.10;;;;;;5086530;28;27399;-67
2021/05/30 12:43:39;;;;;;;7.10;2.10;;;24.80;51.30;;;;;;5085794;28;27309;-67
2021/05/30 12:46:24;;;;;;;2.30;2.10;;;24.80;51.00;;;;;;5086466;28;27352;-68
2021/05/30 12:49:10;;;;;;;3.35;2.00;;;24.70;51.70;;;;;;5086331;28;28067;-67
2021/05/30 12:52:06;;;;;;;4.35;2.10;;;24.60;51.20;;;;;;5086284;28;27473;-67
2021/05/30 12:55:06;;;;;;;4.10;2.65;;;24.60;51.90;;;;;;5085547;28;27399;-68
2021/05/30 12:57:54;;;;;;;5.10;2.35;;;24.60;51.20;;;;;;5086130;28;27429;-68
2021/05/30 13:00:39;;;;;;;4.88;2.45;;;24.60;54.30;;;;;;5086073;28;27403;-67
2021/05/30 13:03:26;;;;;;;3.15;2.40;;;24.60;58.30;;;;;;5085833;28;27414;-67
2021/05/30 13:06:10;;;;;;;2.28;2.08;;;24.70;55.30;;;;;;5086082;28;27395;-67
2021/05/30 13:08:58;;;;;;;4.40;2.15;;;24.80;56.50;;;;;;5086049;28;27336;-67
2021/05/30 13:11:43;;;;;;;2.67;2.22;;;24.80;54.50;;;;;;5085635;28;27514;-67
2021/05/30 13:14:32;;;;;;;4.50;2.22;;;24.80;60.00;;;;;;5085786;28;27754;-67
2021/05/30 13:17:23;;;;;;;2.42;1.92;;;24.90;54.40;;;;;;5085893;28;27423;-67
2021/05/30 13:20:23;;;;;;;5.07;1.98;;;24.80;54.60;;;;;;5080837;28;27474;-67
2021/05/30 13:23:35;;;;;;;3.22;2.20;;;24.80;57.20;;;;;;5085115;28;27790;-67
2021/05/30 13:26:20;;;;;;;4.70;2.17;;;24.80;57.60;;;;;;5081574;28;27435;-70
2021/05/30 13:29:05;;;;;;;3.42;2.28;;;24.90;67.30;;;;;;5085700;28;27462;-67
2021/05/30 13:31:49;;;;;;;3.13;2.13;;;25.00;59.30;;;;;;5084708;28;27542;-67
2021/05/30 13:34:34;;;;;;;4.30;2.13;;;25.00;56.00;;;;;;5081065;28;27460;-67
2021/05/30 13:37:19;;;;;;;2.30;2.10;;;25.00;58.30;;;;;;5085323;28;27458;-68
2021/05/30 13:40:05;;;;;;;2.92;1.92;;;25.00;55.80;;;;;;5084608;28;27487;-67
2021/05/30 13:42:50;;;;;;;3.30;2.00;;;25.10;53.60;;;;;;5085143;28;27542;-68
2021/05/30 13:45:34;;;;;;;3.47;1.95;;;25.10;53.00;;;;;;5085428;28;27407;-67
2021/05/30 13:48:19;;;;;;;2.22;2.00;;;25.00;55.40;;;;;;5085062;28;27418;-67
2021/05/30 13:51:10;;;;;;;3.90;1.95;;;25.00;59.20;;;;;;5084512;28;27431;-67
2021/05/30 13:53:55;;;;;;;2.65;1.80;;;25.10;65.20;;;;;;5085119;28;27324;-67
2021/05/30 13:56:40;;;;;;;2.85;2.20;;;25.10;59.00;;;;;;5084736;28;27340;-67
2021/05/30 13:59:24;;;;;;;2.42;2.10;;;25.20;59.20;;;;;;5084849;28;27352;-68
2021/05/30 14:02:16;;;;;;;4.20;2.00;;;25.20;54.50;;;;;;5080896;28;27355;-71
2021/05/30 14:05:00;;;;;;;5.03;2.10;;;25.20;53.70;;;;;;5084354;28;27426;-68
2021/05/30 14:07:45;;;;;;;2.70;2.13;;;25.10;53.80;;;;;;5084901;28;27873;-67
2021/05/30 14:10:29;;;;;;;2.95;1.80;;;25.00;53.60;;;;;;5084710;28;27413;-68
2021/05/30 14:13:14;;;;;;;3.25;1.80;;;25.00;62.40;;;;;;5084666;28;27428;-67
2021/05/30 14:15:58;;;;;;;2.55;2.05;;;24.90;54.00;;;;;;5084860;28;27458;-68
2021/05/30 14:18:43;;;;;;;1.80;1.65;;;24.80;54.40;;;;;;5083331;28;27989;-68
2021/05/30 14:21:28;;;;;;;4.47;2.22;;;24.80;51.60;;;;;;5080880;28;27506;-67
2021/05/30 14:24:12;;;;;;;4.53;2.20;;;24.70;50.30;;;;;;5083913;28;27350;-68
2021/05/30 14:26:57;;;;;;;3.47;1.88;;;24.70;49.90;;;;;;5084460;28;27868;-68
2021/05/30 14:29:42;;;;;;;3.80;1.90;;;24.60;53.40;;;;;;5084717;28;27368;-68